»·PEaware :: N58EU KHQM-S23

N58EU :: KHQM-S23

FLIGHT INFORMATION

Flight Status: Arrived
Operator: Privately registered:
United States
More flights under this callsign
Pilot: Kelly C. (19495)
Aircraft: BEECH AIRCRAFT SUPER KING AIR 350
(B350)
More flights by this aircraft type
Origin: KHQM Bowerman
United States
Destination: S23 Ione Mun
United States
More flights between these airports :: More routes between these airports
Route: +HQM J70 SEA J505 ONSET
File this flight plan on PilotEdge
Remarks:
Altitude:
(Current/Filed)
27,000ft
Speed:
(Current/Filed)
250kts
Departed: 23-May-20 09:09 AM
Arrived: 23-May-20 10:30 AM
Distance/Time
Traveled:
283nm/1:21
Distance/Time
To Go:
Arrived

Flight Plot

Page will automatically refresh every two minutes.

Flight plan parsing failed; only flown route is shown


Map Options




Map Legend


Flown Route
Filed Route
Departure Airport
Arrival Airport
Navaid (VOR, NDB)
Fix

Horizontal Profiles

Position Reports

Time Latitude Longitude Heading Altitude Ground
Speed
23-May-20 08:51 46.973475 -123.929802 169 18ft 0kts
23-May-20 08:52 46.973475 -123.929802 169 18ft 0kts
23-May-20 08:53 46.973475 -123.929802 169 18ft 0kts
23-May-20 08:54 46.973475 -123.929802 170 18ft 0kts
23-May-20 08:55 46.973475 -123.929801 170 18ft 0kts
23-May-20 08:56 46.973475 -123.929801 169 18ft 0kts
23-May-20 08:57 46.973475 -123.929801 169 18ft 0kts
23-May-20 08:58 46.973475 -123.929801 170 18ft 0kts
23-May-20 08:59 46.973475 -123.929801 169 18ft 0kts
23-May-20 09:00 46.973475 -123.929801 169 18ft 0kts
23-May-20 09:01 46.973475 -123.929801 170 18ft 0kts
23-May-20 09:02 46.973475 -123.929801 169 18ft 0kts
23-May-20 09:03 46.973475 -123.929801 169 18ft 0kts
23-May-20 09:04 46.973475 -123.929801 169 18ft 0kts
23-May-20 09:05 46.973475 -123.929801 170 18ft 0kts
23-May-20 09:06 46.973208 -123.929614 132 19ft 10kts
23-May-20 09:07 46.973142 -123.927342 128 19ft 0kts
23-May-20 09:08 46.969364 -123.951353 261 359ft 143kts
23-May-20 09:09 46.972666 -124.012884 329 1583ft 194kts
23-May-20 09:10 47.004308 -123.971533 80 3491ft 185kts
23-May-20 09:11 47.016993 -123.896167 69 5096ft 183kts
23-May-20 09:12 47.035485 -123.825919 66 6635ft 184kts
23-May-20 09:13 47.054731 -123.755192 66 8062ft 188kts
23-May-20 09:14 47.074105 -123.683771 64 9935ft 188kts
23-May-20 09:15 47.093813 -123.610926 63 11562ft 193kts
23-May-20 09:16 47.113697 -123.537162 62 13086ft 198kts
23-May-20 09:17 47.133800 -123.462344 60 14900ft 197kts
23-May-20 09:18 47.154072 -123.386700 58 16542ft 198kts
23-May-20 09:19 47.174338 -123.310796 58 18030ft 200kts
23-May-20 09:20 47.194578 -123.234640 57 19377ft 202kts
23-May-20 09:21 47.214926 -123.157922 56 20611ft 204kts
23-May-20 09:22 47.235592 -123.079912 55 21816ft 205kts
23-May-20 09:23 47.256393 -123.000890 53 22964ft 207kts
23-May-20 09:24 47.277219 -122.921509 52 24104ft 208kts
23-May-20 09:25 47.298137 -122.841549 51 25280ft 209kts
23-May-20 09:26 47.319035 -122.761427 50 26461ft 209kts
23-May-20 09:27 47.340202 -122.680579 50 27289ft 223kts
23-May-20 09:28 47.363472 -122.590791 52 27278ft 242kts
23-May-20 09:29 47.387168 -122.497818 52 27276ft 250kts
23-May-20 09:30 47.411125 -122.403976 52 27275ft 253kts
23-May-20 09:31 47.435889 -122.309418 48 27267ft 251kts
23-May-20 09:32 47.468410 -122.223077 44 27267ft 247kts
23-May-20 09:33 47.501681 -122.135220 43 27263ft 248kts
23-May-20 09:34 47.535484 -122.046186 43 27248ft 249kts
23-May-20 09:35 47.569233 -121.956989 43 27231ft 250kts
23-May-20 09:36 47.603147 -121.867060 43 27221ft 250kts
23-May-20 09:37 47.637031 -121.776934 43 27222ft 250kts
23-May-20 09:38 47.670797 -121.686852 44 27222ft 250kts
23-May-20 09:39 47.704670 -121.596163 44 27222ft 250kts
23-May-20 09:40 47.738383 -121.505592 44 27222ft 250kts
23-May-20 09:41 47.772122 -121.414643 44 27223ft 250kts
23-May-20 09:42 47.805217 -121.325148 45 27213ft 251kts
23-May-20 09:43 47.838459 -121.234911 45 27215ft 250kts
23-May-20 09:44 47.871647 -121.144594 45 27206ft 250kts
23-May-20 09:45 47.905122 -121.053202 45 27174ft 251kts
23-May-20 09:46 47.938871 -120.960659 46 27128ft 253kts
23-May-20 09:47 47.972229 -120.868735 46 27116ft 249kts
23-May-20 09:48 48.005238 -120.777735 47 27115ft 248kts
23-May-20 09:49 48.038007 -120.687053 47 27117ft 248kts
23-May-20 09:50 48.070871 -120.595711 47 27118ft 248kts
23-May-20 09:51 48.102687 -120.506958 47 27122ft 250kts
23-May-20 09:52 48.135980 -120.413799 47 27131ft 253kts
23-May-20 09:53 48.168886 -120.321265 48 27121ft 255kts
23-May-20 09:54 48.202163 -120.227367 48 27123ft 255kts
23-May-20 09:55 48.235520 -120.132933 48 27130ft 255kts
23-May-20 09:56 48.269225 -120.037458 48 26775ft 271kts
23-May-20 09:57 48.306705 -119.930660 52 25369ft 300kts
23-May-20 09:58 48.345839 -119.817429 53 23910ft 307kts
23-May-20 09:59 48.385391 -119.703034 54 22431ft 306kts
23-May-20 10:00 48.423706 -119.592002 55 21101ft 287kts
23-May-20 10:01 48.459830 -119.487564 56 20090ft 275kts
23-May-20 10:02 48.494830 -119.385975 57 19095ft 269kts
23-May-20 10:03 48.528738 -119.286890 59 18105ft 267kts
23-May-20 10:04 48.562747 -119.187024 59 17098ft 265kts
23-May-20 10:05 48.596445 -119.087651 59 16092ft 263kts
23-May-20 10:06 48.629899 -118.988629 59 15089ft 262kts
23-May-20 10:07 48.663006 -118.890215 60 14093ft 261kts
23-May-20 10:08 48.696002 -118.791541 60 13093ft 261kts
23-May-20 10:09 48.728966 -118.692979 60 12092ft 259kts
23-May-20 10:10 48.761192 -118.596142 60 11059ft 249kts
23-May-20 10:11 48.792186 -118.503061 61 10038ft 243kts
23-May-20 10:12 48.822656 -118.410879 62 9044ft 243kts
23-May-20 10:13 48.853011 -118.318658 63 8982ft 245kts
23-May-20 10:14 48.852462 -118.218058 106 8093ft 248kts
23-May-20 10:15 48.834305 -118.117969 105 7484ft 239kts
23-May-20 10:16 48.816852 -118.018476 105 7480ft 239kts
23-May-20 10:17 48.799285 -117.919348 105 7472ft 238kts
23-May-20 10:18 48.781596 -117.820119 105 7466ft 238kts
23-May-20 10:20 48.763970 -117.721782 105 7466ft 237kts
23-May-20 10:21 48.746594 -117.625409 105 7009ft 214kts
23-May-20 10:22 48.732241 -117.545144 105 5929ft 183kts
23-May-20 10:23 48.718751 -117.470538 105 5086ft 176kts
23-May-20 10:24 48.682994 -117.436682 153 4213ft 157kts
23-May-20 10:25 48.706046 -117.412344 345 2210ft 134kts
23-May-20 10:26 48.713993 -117.434821 168 3481ft 186kts
23-May-20 10:27 48.691022 -117.408442 10 2443ft 126kts
23-May-20 10:28 48.721452 -117.423473 247 2540ft 110kts
23-May-20 10:29 48.692426 -117.418971 166 2531ft 105kts
23-May-20 10:30 48.707790 -117.413116 343 2118ft 15kts
23-May-20 10:31 48.713463 -117.414394 166 2116ft 0kts
23-May-20 10:32 48.713459 -117.414393 167 2116ft 0kts

Navigation Log

Ident Type
Flight plan parsing failed, navigation log unavailable